Country
Station

 

Weather  for  Warton  -  United Kingdom    United Kingdom

  
16 °C (61 °F)
    
 
 

Current METAR for Warton is :

EGNO 191520Z 25022G34KT 9999 FEW025 BKN044 16/08 Q1005

 

This is a report for Warton - United Kingdom.
 
The report was made 20 minutes ago, at 15:20 UTC .
The wind was blowing at a speed of 11.3 meters per second (25.3 miles per hour) with gusts up to 17.5 meters per second (39.1 miles per hour) from west/southwest (250°).
 
The temperature was 16 °C (61 °F), with a dew-point at 8 °C (46 °F).
The atmospheric pressure was 1005 hPa (29.68 inHg).
The relative humidity was 59.0%.
 
There were a few clouds at a height of 762 meters (2500 feet) and broken clouds at a height of 1341 meters (4400 feet).
 
The overall visibility was greater than 10 kilometers (6.2 miles).
 

 
 
 
 

Country :   A   B   C   D   E   F   G   H   I   J   K   L   M   N   O   P   Q   R   S   T   U   V   W   Y   Z

 

Site Info  |  Disclaimer  |  Credits  |  Privacy
Contact us  |  Add to favorites
© 2013-2018 METARs - All rights reserved